Time,TemperatureF,DewpointF,PressureIn,WindDirection,WindDirectionDegrees,WindSpeedMPH,WindSpeedGustMPH,Humidity,HourlyPrecipIn,Conditions,Clouds,dailyrainin,SoftwareType,DateUTC
2013-09-03 00:29:00,60.4,60.1,29.66,ESE,119,0.0,3.0,99,0.00,,---,0.00,VWS V14.00,2013-09-03 04:29:00,
2013-09-03 00:59:00,60.3,60.0,29.66,ENE,74,1.0,2.0,99,0.00,,---,0.00,VWS V14.00,2013-09-03 04:59:00,
2013-09-03 01:29:00,60.2,60.2,29.66,East,99,1.0,3.0,100,0.00,,---,0.00,VWS V14.00,2013-09-03 05:29:00,
2013-09-03 01:59:00,60.1,60.1,29.66,ESE,111,1.0,2.0,100,0.00,,---,0.00,VWS V14.00,2013-09-03 05:59:00,
2013-09-03 02:29:00,60.1,60.1,29.66,ENE,59,1.0,3.0,100,0.00,,---,0.00,VWS V14.00,2013-09-03 06:29:00,
2013-09-03 02:59:00,60.1,60.1,29.65,ENE,59,1.0,3.0,100,0.00,,---,0.00,VWS V14.00,2013-09-03 06:59:00,
2013-09-03 03:29:00,60.1,60.1,29.65,ENE,59,0.0,0.0,100,0.00,,---,0.00,VWS V14.00,2013-09-03 07:29:00,
2013-09-03 03:59:00,60.2,60.2,29.64,ENE,71,0.0,0.0,100,0.01,,---,0.01,VWS V14.00,2013-09-03 07:59:00,
2013-09-03 04:29:00,60.4,60.4,29.64,SW,220,2.0,2.0,100,0.01,,---,0.01,VWS V14.00,2013-09-03 08:29:00,
2013-09-03 04:59:00,60.2,60.2,29.64,WSW,255,0.0,0.0,100,0.01,,---,0.01,VWS V14.00,2013-09-03 08:59:00,
2013-09-03 05:29:00,59.7,59.4,29.65,SW,223,2.0,2.0,99,0.00,,---,0.01,VWS V14.00,2013-09-03 09:29:00,
2013-09-03 05:59:00,58.6,58.3,29.65,WSW,237,1.0,3.0,99,0.00,,---,0.01,VWS V14.00,2013-09-03 09:59:00,
2013-09-03 06:29:00,58.0,57.7,29.66,SSW,200,0.0,4.0,99,0.00,,---,0.01,VWS V14.00,2013-09-03 10:29:00,
2013-09-03 06:59:00,58.0,57.7,29.66,SE,137,0.0,2.0,99,0.00,,---,0.01,VWS V14.00,2013-09-03 10:59:00,
2013-09-03 07:29:00,58.0,57.7,29.68,South,187,1.0,1.0,99,0.00,,---,0.01,VWS V14.00,2013-09-03 11:29:00,
2013-09-03 07:59:00,57.9,57.6,29.69,WNW,286,3.0,4.0,99,0.00,,---,0.01,VWS V14.00,2013-09-03 11:59:00,
2013-09-03 08:29:00,57.5,57.2,29.69,South,183,0.0,1.0,99,0.00,,---,0.01,VWS V14.00,2013-09-03 12:29:00,
2013-09-03 08:59:00,57.8,57.5,29.69,ENE,76,0.0,2.0,99,0.00,,---,0.01,VWS V14.00,2013-09-03 12:59:00,
2013-09-03 09:29:00,58.6,58.0,29.70,South,186,2.0,3.0,98,0.00,,---,0.01,VWS V14.00,2013-09-03 13:29:00,
2013-09-03 09:59:00,59.1,58.5,29.69,SSE,167,0.0,1.0,98,0.00,,---,0.01,VWS V14.00,2013-09-03 13:59:00,
2013-09-03 10:29:00,59.3,58.5,29.70,SW,234,3.0,4.0,97,0.00,,---,0.01,VWS V14.00,2013-09-03 14:29:00,
2013-09-03 10:59:00,60.4,59.3,29.69,SSE,153,0.0,2.0,96,0.00,,---,0.01,VWS V14.00,2013-09-03 14:59:00,
2013-09-03 11:29:00,62.4,60.3,29.69,NE,38,0.0,1.0,93,0.00,,---,0.01,VWS V14.00,2013-09-03 15:29:00,
2013-09-03 11:59:00,64.1,60.8,29.69,South,175,0.0,4.0,89,0.00,,---,0.01,VWS V14.00,2013-09-03 15:59:00,
2013-09-03 12:29:00,64.6,61.3,29.68,South,185,3.0,4.0,89,0.00,,---,0.01,VWS V14.00,2013-09-03 16:29:00,
2013-09-03 12:59:00,63.1,60.7,29.68,South,183,1.0,7.0,92,0.01,,---,0.02,VWS V14.00,2013-09-03 16:59:00,
2013-09-03 13:29:00,62.9,61.2,29.68,WSW,238,2.0,4.0,94,0.01,,---,0.02,VWS V14.00,2013-09-03 17:29:00,
2013-09-03 13:59:00,65.2,61.9,29.67,South,173,3.0,4.0,89,0.01,,---,0.02,VWS V14.00,2013-09-03 17:59:00,
2013-09-03 14:29:00,62.7,60.3,29.67,SSE,155,0.0,3.0,92,0.01,,---,0.02,VWS V14.00,2013-09-03 18:29:00,
2013-09-03 14:59:00,62.8,61.3,29.67,West,275,7.0,7.0,95,0.01,,---,0.02,VWS V14.00,2013-09-03 18:59:00,
2013-09-03 15:29:00,63.6,60.6,29.66,ESE,108,2.0,4.0,90,0.01,,---,0.02,VWS V14.00,2013-09-03 19:29:00,
2013-09-03 15:59:00,62.9,60.5,29.67,SSE,165,2.0,4.0,92,0.00,,---,0.02,VWS V14.00,2013-09-03 19:59:00,
2013-09-03 16:29:00,64.0,61.3,29.67,ESE,113,0.0,5.0,91,0.00,,---,0.02,VWS V14.00,2013-09-03 20:29:00,
2013-09-03 16:59:00,63.4,60.1,29.67,ESE,105,0.0,2.0,89,0.00,,---,0.02,VWS V14.00,2013-09-03 20:59:00,
2013-09-03 17:29:00,62.3,59.6,29.68,ESE,107,0.0,4.0,91,0.00,,---,0.02,VWS V14.00,2013-09-03 21:29:00,
2013-09-03 17:59:00,60.7,59.0,29.68,South,172,1.0,5.0,94,0.01,,---,0.03,VWS V14.00,2013-09-03 21:59:00,
2013-09-03 18:29:00,59.4,58.5,29.69,East,94,0.0,3.0,97,0.04,,---,0.06,VWS V14.00,2013-09-03 22:29:00,
2013-09-03 18:59:00,58.7,57.8,29.69,West,263,0.0,3.0,97,0.04,,---,0.06,VWS V14.00,2013-09-03 22:59:00,
2013-09-03 19:29:00,58.1,57.3,29.69,ENE,61,1.0,2.0,97,0.04,,---,0.07,VWS V14.00,2013-09-03 23:29:00,
2013-09-03 19:59:00,57.9,57.1,29.70,West,265,0.0,4.0,97,0.01,,---,0.07,VWS V14.00,2013-09-03 23:59:00,
2013-09-03 20:29:00,57.6,57.0,29.70,WSW,253,2.0,4.0,98,0.01,,---,0.07,VWS V14.00,2013-09-04 00:29:00,
2013-09-03 20:59:00,57.7,56.9,29.71,East,91,2.0,3.0,97,0.00,,---,0.07,VWS V14.00,2013-09-04 00:59:00,
2013-09-03 21:29:00,57.6,56.8,29.72,WSW,239,4.0,6.0,97,0.00,,---,0.07,VWS V14.00,2013-09-04 01:29:00,
2013-09-03 21:59:00,57.6,56.8,29.72,SSE,156,1.0,5.0,97,0.00,,---,0.07,VWS V14.00,2013-09-04 01:59:00,
2013-09-03 22:29:00,57.6,57.0,29.72,NE,47,3.0,5.0,98,0.00,,---,0.07,VWS V14.00,2013-09-04 02:29:00,
2013-09-03 22:59:00,57.5,56.4,29.72,WNW,286,1.0,6.0,96,0.00,,---,0.07,VWS V14.00,2013-09-04 02:59:00,
2013-09-03 23:29:00,56.7,55.6,29.73,East,92,0.0,3.0,96,0.00,,---,0.07,VWS V14.00,2013-09-04 03:29:00,